createdAt,value
2023-05-23T00:00:38.806Z,24.48
2023-05-23T00:03:06.522Z,24.52
2023-05-23T00:05:34.231Z,25.23
2023-05-23T00:08:02.552Z,24.42
2023-05-23T00:10:30.192Z,23.80
2023-05-23T00:12:59.246Z,25.38
2023-05-23T00:15:27.154Z,23.02
2023-05-23T00:17:54.849Z,22.85
2023-05-23T00:20:22.905Z,23.05
2023-05-23T00:22:50.569Z,22.88
2023-05-23T00:25:18.225Z,23.25
2023-05-23T00:27:45.890Z,20.98
2023-05-23T00:30:15.085Z,19.30
2023-05-23T00:32:42.908Z,17.75
2023-05-23T00:35:10.811Z,17.13
2023-05-23T00:37:38.631Z,16.90
2023-05-23T00:40:08.255Z,17.23
2023-05-23T00:42:35.970Z,18.50
2023-05-23T00:45:03.855Z,17.85
2023-05-23T00:47:33.148Z,17.27
2023-05-23T00:50:01.076Z,16.08
2023-05-23T00:52:28.791Z,15.95
2023-05-23T00:54:56.652Z,15.95
2023-05-23T00:57:24.373Z,15.07
2023-05-23T00:59:53.715Z,17.02
2023-05-23T01:02:22.181Z,15.77
2023-05-23T01:04:54.499Z,15.50
2023-05-23T01:07:22.448Z,14.10
2023-05-23T01:09:50.981Z,14.68
2023-05-23T01:12:26.388Z,16.05
2023-05-23T01:15:01.789Z,14.43
2023-05-23T01:17:37.647Z,15.38
2023-05-23T01:20:10.744Z,16.48
2023-05-23T01:22:53.829Z,15.55
2023-05-23T01:25:40.923Z,17.05
2023-05-23T01:28:16.411Z,16.40
2023-05-23T01:30:46.773Z,16.35
2023-05-23T01:33:16.478Z,17.98
2023-05-23T01:35:44.302Z,17.02
2023-05-23T01:38:11.944Z,19.42
2023-05-23T01:40:40.252Z,18.25
2023-05-23T01:43:12.384Z,20.35
2023-05-23T01:45:40.755Z,29.80
2023-05-23T01:48:10.433Z,32.38
2023-05-23T01:50:38.683Z,32.30
2023-05-23T01:53:06.782Z,33.20
2023-05-23T01:55:35.815Z,34.60
2023-05-23T01:58:04.590Z,35.42
2023-05-23T02:00:33.605Z,35.60
2023-05-23T02:03:01.417Z,37.75
2023-05-23T02:05:29.100Z,40.72
2023-05-23T02:07:57.000Z,44.20
2023-05-23T02:10:24.789Z,42.75
2023-05-23T02:12:52.440Z,46.72
2023-05-23T02:15:20.235Z,46.08
2023-05-23T02:17:49.696Z,50.17
2023-05-23T02:20:19.045Z,50.70
2023-05-23T02:22:49.131Z,48.47
2023-05-23T02:25:16.921Z,45.78
2023-05-23T02:27:44.671Z,48.33
2023-05-23T02:30:13.134Z,49.13
2023-05-23T02:32:41.034Z,51.58
2023-05-23T02:35:11.282Z,57.95
2023-05-23T02:37:39.061Z,55.03
2023-05-23T02:40:08.461Z,50.85
2023-05-23T02:42:37.429Z,54.70
2023-05-23T02:45:05.643Z,51.15
2023-05-23T02:47:33.520Z,45.50
2023-05-23T02:50:01.397Z,47.42
2023-05-23T02:52:30.767Z,52.88
2023-05-23T02:54:58.392Z,46.28
2023-05-23T02:57:26.916Z,44.75
2023-05-23T02:59:54.871Z,44.92
2023-05-23T03:02:22.743Z,47.10
2023-05-23T03:04:50.964Z,41.30
2023-05-23T03:07:27.566Z,41.15
2023-05-23T03:09:58.596Z,37.70
2023-05-23T03:12:26.423Z,47.92
2023-05-23T03:14:54.680Z,44.20
2023-05-23T03:17:22.826Z,47.22
2023-05-23T03:19:50.939Z,45.55
2023-05-23T03:22:19.989Z,46.00
2023-05-23T03:24:47.957Z,42.15
2023-05-23T03:27:17.173Z,46.90
2023-05-23T03:29:45.120Z,40.88
2023-05-23T03:32:13.428Z,42.40
2023-05-23T03:34:41.580Z,43.75
2023-05-23T03:37:09.404Z,39.38
2023-05-23T03:39:39.542Z,41.25
2023-05-23T03:42:08.416Z,36.88
2023-05-23T03:44:37.690Z,46.85
2023-05-23T03:47:07.964Z,39.78
2023-05-23T03:49:38.686Z,36.88
2023-05-23T03:52:06.779Z,39.75
2023-05-23T03:54:35.501Z,42.85
2023-05-23T03:57:03.865Z,38.50
2023-05-23T03:59:31.956Z,41.85
2023-05-23T04:02:01.619Z,36.40
2023-05-23T04:04:31.151Z,35.00
2023-05-23T04:07:01.817Z,38.78
2023-05-23T04:09:30.002Z,39.25
2023-05-23T04:11:59.413Z,40.13
2023-05-23T04:14:29.501Z,38.90
2023-05-23T04:16:59.185Z,36.38
2023-05-23T04:19:28.546Z,40.28
2023-05-23T04:21:56.547Z,36.47
2023-05-23T04:24:24.298Z,37.42
2023-05-23T04:26:52.046Z,42.28
2023-05-23T04:29:20.473Z,38.00
2023-05-23T04:31:49.548Z,37.72
2023-05-23T04:34:17.544Z,41.08
2023-05-23T04:36:46.839Z,40.45
2023-05-23T04:39:15.980Z,41.85
2023-05-23T04:41:56.746Z,40.55
2023-05-23T04:44:46.043Z,41.10
2023-05-23T04:47:19.700Z,42.58
2023-05-23T04:50:09.864Z,42.08
2023-05-23T04:52:39.076Z,42.47
2023-05-23T04:55:08.608Z,42.75
2023-05-23T04:57:37.179Z,39.80
2023-05-23T05:00:10.444Z,44.00
2023-05-23T05:02:39.100Z,39.00
2023-05-23T05:05:07.904Z,42.22
2023-05-23T05:07:37.058Z,45.95
2023-05-23T05:10:08.831Z,46.58
2023-05-23T05:12:36.449Z,42.42
2023-05-23T05:15:04.907Z,46.50
2023-05-23T05:17:37.009Z,47.75
2023-05-23T05:20:10.886Z,48.15
2023-05-23T05:22:41.458Z,44.47
2023-05-23T05:25:12.336Z,55.47
2023-05-23T05:27:41.152Z,58.22
2023-05-23T05:30:12.165Z,57.97
2023-05-23T05:32:47.782Z,53.45
2023-05-23T05:35:15.914Z,57.38
2023-05-23T05:37:45.920Z,56.17
2023-05-23T05:40:15.683Z,55.17
2023-05-23T05:42:44.076Z,50.53
2023-05-23T05:45:12.520Z,57.50
2023-05-23T05:47:41.887Z,53.17
2023-05-23T05:50:10.733Z,51.38
2023-05-23T05:52:40.019Z,48.22
2023-05-23T05:55:11.296Z,44.00
2023-05-23T05:57:41.651Z,47.20
2023-05-23T06:00:14.892Z,47.15
2023-05-23T06:02:52.643Z,49.92
2023-05-23T06:05:42.093Z,49.03
2023-05-23T06:08:10.365Z,49.08
2023-05-23T06:10:39.817Z,52.47
2023-05-23T06:13:09.234Z,50.70
2023-05-23T06:15:38.212Z,56.25
2023-05-23T06:18:06.041Z,52.85
2023-05-23T06:20:33.784Z,51.22
2023-05-23T06:23:05.612Z,64.25
2023-05-23T06:25:33.674Z,57.70
2023-05-23T06:28:01.590Z,57.40
2023-05-23T06:30:32.548Z,62.45
2023-05-23T06:33:00.343Z,70.03
2023-05-23T06:35:28.078Z,62.95
2023-05-23T06:37:55.755Z,57.47
2023-05-23T06:40:23.439Z,54.30
2023-05-23T06:42:51.911Z,44.83
2023-05-23T06:45:26.158Z,44.38
2023-05-23T06:47:55.215Z,41.70
2023-05-23T06:50:22.957Z,33.47
2023-05-23T06:52:51.756Z,34.40
2023-05-23T06:55:20.403Z,29.85
2023-05-23T06:57:51.936Z,30.00
2023-05-23T07:00:21.347Z,34.50
2023-05-23T07:03:03.726Z,35.42
2023-05-23T07:05:33.329Z,37.63
2023-05-23T07:08:01.505Z,29.25
2023-05-23T07:10:29.329Z,30.88
2023-05-23T07:13:05.531Z,23.58
2023-05-23T07:15:34.285Z,20.00
2023-05-23T07:18:11.733Z,17.48
2023-05-23T07:20:39.676Z,17.27
2023-05-23T07:23:14.692Z,16.55
2023-05-23T07:25:53.798Z,17.75
2023-05-23T07:28:31.818Z,18.20
2023-05-23T07:31:00.238Z,14.93
2023-05-23T07:33:29.927Z,13.32
2023-05-23T07:36:02.143Z,14.98
2023-05-23T07:38:29.905Z,18.63
2023-05-23T07:41:09.898Z,15.35
2023-05-23T07:43:39.619Z,12.73
2023-05-23T07:46:10.520Z,12.38
2023-05-23T07:48:40.524Z,11.05
2023-05-23T07:51:15.664Z,10.98
2023-05-23T07:53:43.379Z,10.30
2023-05-23T07:56:13.981Z,9.23
2023-05-23T07:58:43.334Z,8.55
2023-05-23T08:01:11.057Z,12.07
2023-05-23T08:03:58.910Z,7.20
2023-05-23T08:06:45.765Z,8.80
2023-05-23T08:09:24.706Z,8.02
2023-05-23T08:11:56.455Z,9.75
2023-05-23T08:14:31.706Z,9.43
2023-05-23T08:17:20.545Z,6.95
2023-05-23T08:19:49.881Z,7.82
2023-05-23T08:22:17.748Z,7.00
2023-05-23T08:24:45.591Z,5.65
2023-05-23T08:27:13.470Z,6.60
2023-05-23T08:29:42.885Z,6.13
2023-05-23T08:32:11.002Z,5.80
2023-05-23T08:34:39.712Z,6.72
2023-05-23T08:37:08.734Z,7.63
2023-05-23T08:39:36.638Z,7.70
2023-05-23T08:42:36.802Z,10.60
2023-05-23T08:45:08.320Z,8.88
2023-05-23T08:47:38.927Z,9.38
2023-05-23T08:50:09.395Z,10.32
2023-05-23T08:52:42.280Z,10.73
2023-05-23T08:55:12.170Z,10.00
2023-05-23T08:57:43.647Z,10.40
2023-05-23T09:00:26.827Z,7.25
2023-05-23T09:02:55.919Z,7.10
2023-05-23T09:05:40.877Z,8.73
2023-05-23T09:08:10.680Z,8.05
2023-05-23T09:10:40.196Z,11.50
2023-05-23T09:13:09.956Z,11.77
2023-05-23T09:15:38.673Z,14.77
2023-05-23T09:18:06.770Z,13.07
2023-05-23T09:20:35.400Z,13.88
2023-05-23T09:23:13.857Z,15.52
2023-05-23T09:25:47.695Z,15.75
2023-05-23T09:28:16.233Z,11.98
2023-05-23T09:30:44.362Z,13.35
2023-05-23T09:33:15.371Z,10.60
2023-05-23T09:35:46.122Z,11.90
2023-05-23T09:38:15.308Z,13.02
2023-05-23T09:40:46.470Z,15.00
2023-05-23T09:43:18.377Z,9.80
2023-05-23T09:45:50.632Z,12.13
2023-05-23T09:48:18.388Z,12.25
2023-05-23T09:50:47.198Z,14.50
2023-05-23T09:53:16.280Z,11.20
2023-05-23T09:55:43.944Z,11.40
2023-05-23T09:58:12.621Z,9.43
2023-05-23T10:00:41.565Z,8.10
2023-05-23T10:03:12.463Z,6.63
2023-05-23T10:05:45.180Z,7.65
2023-05-23T10:08:19.627Z,7.53
2023-05-23T10:11:33.669Z,9.48
2023-05-23T10:14:03.087Z,6.80
2023-05-23T10:16:39.911Z,8.30
2023-05-23T10:19:25.240Z,9.77
2023-05-23T10:21:59.488Z,9.40
2023-05-23T10:24:29.012Z,8.27
2023-05-23T10:26:57.725Z,9.50
2023-05-23T10:29:25.880Z,7.32
2023-05-23T10:31:54.639Z,5.82
2023-05-23T10:34:28.895Z,11.88
2023-05-23T10:37:02.469Z,8.48
2023-05-23T10:39:44.710Z,11.00
2023-05-23T10:42:16.945Z,7.88
2023-05-23T10:44:44.670Z,8.30
2023-05-23T10:47:13.188Z,6.60
2023-05-23T10:49:45.941Z,7.93
2023-05-23T10:52:14.904Z,9.20
2023-05-23T10:54:46.527Z,11.68
2023-05-23T10:57:17.723Z,8.60
2023-05-23T10:59:46.915Z,7.25
2023-05-23T11:02:16.014Z,9.55
2023-05-23T11:04:44.193Z,7.45
2023-05-23T11:07:31.441Z,8.65
2023-05-23T11:10:10.787Z,7.63
2023-05-23T11:12:39.474Z,8.15
2023-05-23T11:15:42.706Z,11.77
2023-05-23T11:18:11.833Z,9.95
2023-05-23T11:20:40.004Z,7.95
2023-05-23T11:23:09.297Z,6.78
2023-05-23T11:25:45.640Z,8.18
2023-05-23T11:28:14.247Z,11.52
2023-05-23T11:30:42.448Z,9.95
2023-05-23T11:33:13.678Z,15.88
2023-05-23T11:35:42.486Z,9.45
2023-05-23T11:38:10.942Z,7.32
2023-05-23T11:40:40.722Z,12.18
2023-05-23T11:43:11.522Z,12.85
2023-05-23T11:45:40.121Z,10.23
2023-05-23T11:48:09.347Z,15.45
2023-05-23T11:50:45.584Z,8.13
2023-05-23T11:53:13.358Z,10.05
2023-05-23T11:55:41.852Z,9.43
2023-05-23T11:58:11.298Z,10.38
2023-05-23T12:00:44.562Z,12.90
2023-05-23T12:03:12.789Z,11.60
2023-05-23T12:05:40.734Z,8.23
2023-05-23T12:08:11.836Z,9.27
2023-05-23T12:10:50.527Z,13.95
2023-05-23T12:13:20.128Z,10.38
2023-05-23T12:15:48.047Z,8.18
2023-05-23T12:18:18.222Z,8.32
2023-05-23T12:20:46.066Z,13.13
2023-05-23T12:23:19.549Z,7.65
2023-05-23T12:25:51.771Z,13.00
2023-05-23T12:28:21.350Z,11.75
2023-05-23T12:30:49.571Z,11.70
2023-05-23T12:33:20.552Z,10.80
2023-05-23T12:35:48.239Z,11.98
2023-05-23T12:38:17.522Z,9.98
2023-05-23T12:40:45.290Z,9.63
2023-05-23T12:43:13.061Z,9.68
2023-05-23T12:45:43.448Z,7.82
2023-05-23T12:48:11.340Z,8.40
2023-05-23T12:50:39.137Z,9.35
2023-05-23T12:53:06.770Z,9.65
2023-05-23T12:55:34.385Z,8.38
2023-05-23T12:58:02.140Z,9.30
2023-05-23T13:00:29.884Z,8.32
2023-05-23T13:02:58.985Z,8.25
2023-05-23T13:05:27.652Z,13.98
2023-05-23T13:07:55.441Z,12.77
2023-05-23T13:10:23.172Z,8.38
2023-05-23T13:12:50.836Z,13.93
2023-05-23T13:15:18.801Z,8.88
2023-05-23T13:17:50.167Z,8.68
2023-05-23T13:20:19.618Z,10.98
2023-05-23T13:22:47.396Z,7.35
2023-05-23T13:25:15.109Z,12.15
2023-05-23T13:27:42.701Z,9.38
2023-05-23T13:30:11.291Z,10.20
2023-05-23T13:32:39.003Z,9.18
2023-05-23T13:35:07.683Z,7.13
2023-05-23T13:37:36.775Z,12.63
2023-05-23T13:40:05.933Z,11.05
2023-05-23T13:42:34.253Z,11.95
2023-05-23T13:45:01.913Z,10.52
2023-05-23T13:47:29.695Z,9.57
2023-05-23T13:49:57.351Z,8.35
2023-05-23T13:52:24.989Z,9.18
2023-05-23T13:54:54.197Z,6.32
2023-05-23T13:57:22.005Z,10.18
2023-05-23T13:59:49.649Z,7.57
2023-05-23T14:02:17.317Z,10.10
2023-05-23T14:04:45.063Z,6.70
2023-05-23T14:07:12.671Z,9.77
2023-05-23T14:09:40.357Z,8.75
2023-05-23T14:12:09.631Z,10.73
2023-05-23T14:14:37.283Z,10.80
2023-05-23T14:17:04.937Z,10.43
2023-05-23T14:19:32.774Z,11.48
2023-05-23T14:22:00.485Z,10.77
2023-05-23T14:24:28.167Z,12.25
2023-05-23T14:26:55.947Z,7.18
2023-05-23T14:29:24.881Z,10.65
2023-05-23T14:31:52.722Z,8.68
2023-05-23T14:34:21.381Z,8.88
2023-05-23T14:36:49.006Z,11.55
2023-05-23T14:39:16.746Z,9.80
2023-05-23T14:41:44.679Z,11.88
2023-05-23T14:44:12.335Z,11.18
2023-05-23T14:46:42.621Z,8.32
2023-05-23T14:49:10.319Z,8.40
2023-05-23T14:51:47.238Z,10.50
2023-05-23T14:54:17.980Z,8.50
2023-05-23T14:56:45.726Z,8.55
2023-05-23T14:59:13.387Z,8.05
2023-05-23T15:01:42.641Z,11.57
2023-05-23T15:04:10.804Z,8.57
2023-05-23T15:06:40.380Z,10.85
2023-05-23T15:09:10.465Z,13.57
2023-05-23T15:11:38.812Z,8.20
2023-05-23T15:14:06.843Z,11.20
2023-05-23T15:16:36.597Z,8.65
2023-05-23T15:19:06.104Z,11.50
2023-05-23T15:21:34.016Z,11.23
2023-05-23T15:24:01.911Z,16.15
2023-05-23T15:26:29.976Z,13.88
2023-05-23T15:28:57.685Z,12.48
2023-05-23T15:31:25.422Z,9.02
2023-05-23T15:33:53.140Z,9.90
2023-05-23T15:36:22.102Z,13.63
2023-05-23T15:38:49.683Z,8.77
2023-05-23T15:41:17.902Z,13.85
2023-05-23T15:43:45.500Z,11.95
2023-05-23T15:46:13.282Z,12.77
2023-05-23T15:48:40.931Z,10.68
2023-05-23T15:51:08.581Z,12.85
2023-05-23T15:53:58.022Z,10.02
2023-05-23T15:56:25.168Z,12.32
2023-05-23T15:58:52.781Z,11.27
2023-05-23T16:01:20.669Z,14.77
2023-05-23T16:03:48.544Z,10.43
2023-05-23T16:06:16.374Z,12.32
2023-05-23T16:08:45.600Z,11.52
2023-05-23T16:11:13.291Z,14.43
2023-05-23T16:13:40.907Z,11.40
2023-05-23T16:16:08.705Z,9.80
2023-05-23T16:18:36.468Z,14.73
2023-05-23T16:21:04.422Z,13.48
2023-05-23T16:23:32.205Z,12.68
2023-05-23T16:26:01.364Z,11.70
2023-05-23T16:28:29.388Z,13.23
2023-05-23T16:30:57.335Z,11.90
2023-05-23T16:33:25.216Z,8.60
2023-05-23T16:35:52.802Z,16.70
2023-05-23T16:38:20.535Z,9.30
2023-05-23T16:40:48.258Z,11.40
2023-05-23T16:43:17.316Z,11.18
2023-05-23T16:45:45.251Z,10.40
2023-05-23T16:48:13.182Z,14.80
2023-05-23T16:50:41.032Z,12.05
2023-05-23T16:53:08.792Z,9.02
2023-05-23T16:55:36.426Z,8.57
2023-05-23T16:58:04.094Z,12.68
2023-05-23T17:00:33.207Z,11.10
2023-05-23T17:03:01.086Z,13.02
2023-05-23T17:05:28.848Z,12.02
2023-05-23T17:07:56.596Z,12.10
2023-05-23T17:10:24.283Z,13.82
2023-05-23T17:12:52.248Z,12.38
2023-05-23T17:15:19.978Z,11.07
2023-05-23T17:17:49.133Z,14.88
2023-05-23T17:20:16.860Z,12.55
2023-05-23T17:22:44.528Z,10.82
2023-05-23T17:25:12.140Z,9.13
2023-05-23T17:27:39.840Z,13.50
2023-05-23T17:30:08.554Z,10.98
2023-05-23T17:32:36.268Z,12.90
2023-05-23T17:35:05.822Z,25.25
2023-05-23T17:37:35.217Z,8.85
2023-05-23T17:40:04.311Z,11.00
2023-05-23T17:42:32.039Z,10.88
2023-05-23T17:44:59.664Z,11.52
2023-05-23T17:47:27.492Z,10.38
2023-05-23T17:49:55.610Z,13.18
2023-05-23T17:52:24.843Z,12.73
2023-05-23T17:54:52.588Z,11.68
2023-05-23T17:57:20.293Z,10.82
2023-05-23T17:59:48.138Z,9.40
2023-05-23T18:02:15.866Z,9.48
2023-05-23T18:04:43.636Z,16.15
2023-05-23T18:07:13.070Z,11.23
2023-05-23T18:09:42.043Z,11.80
2023-05-23T18:12:10.197Z,15.05
2023-05-23T18:14:39.355Z,10.75
2023-05-23T18:17:07.354Z,14.05
2023-05-23T18:19:35.807Z,11.88
2023-05-23T18:22:03.494Z,12.10
2023-05-23T18:24:31.186Z,11.77
2023-05-23T18:27:00.721Z,11.73
2023-05-23T18:29:28.468Z,9.95
2023-05-23T18:31:56.313Z,15.30
2023-05-23T18:34:24.584Z,15.45
2023-05-23T18:36:53.165Z,10.80
2023-05-23T18:39:20.821Z,12.43
2023-05-23T18:41:48.516Z,11.63
2023-05-23T18:44:20.292Z,16.92
2023-05-23T18:46:48.381Z,9.48
2023-05-23T18:49:16.122Z,11.57
2023-05-23T18:51:43.792Z,14.77
2023-05-23T18:54:11.443Z,9.75
2023-05-23T18:56:39.103Z,11.05
2023-05-23T18:59:06.778Z,14.20
2023-05-23T19:01:35.820Z,11.48
2023-05-23T19:04:03.814Z,14.82
2023-05-23T19:06:31.716Z,15.48
2023-05-23T19:08:59.367Z,11.35
2023-05-23T19:11:27.018Z,11.57
2023-05-23T19:13:54.648Z,10.05
2023-05-23T19:16:22.368Z,12.70
2023-05-23T19:18:51.525Z,14.60
2023-05-23T19:21:19.224Z,11.02
2023-05-23T19:23:47.137Z,13.05
2023-05-23T19:26:14.795Z,12.25
2023-05-23T19:28:42.549Z,15.07
2023-05-23T19:31:12.242Z,15.80
2023-05-23T19:33:39.961Z,10.82
2023-05-23T19:36:09.130Z,15.00
2023-05-23T19:38:37.059Z,16.58
2023-05-23T19:41:04.767Z,20.05
2023-05-23T19:43:32.516Z,12.43
2023-05-23T19:46:00.332Z,17.23
2023-05-23T19:48:28.017Z,12.65
2023-05-23T19:50:55.847Z,11.30
2023-05-23T19:53:24.832Z,10.57
2023-05-23T19:55:52.718Z,14.35
2023-05-23T19:58:21.008Z,15.55
2023-05-23T20:00:48.817Z,12.88
2023-05-23T20:03:16.663Z,15.00
2023-05-23T20:05:44.889Z,10.98
2023-05-23T20:08:12.573Z,13.88
2023-05-23T20:10:43.228Z,14.85
2023-05-23T20:13:11.513Z,15.80
2023-05-23T20:15:40.658Z,18.20
2023-05-23T20:18:08.986Z,11.85
2023-05-23T20:20:36.785Z,11.85
2023-05-23T20:23:05.708Z,16.25
2023-05-23T20:25:33.785Z,20.25
2023-05-23T20:28:02.769Z,16.45
2023-05-23T20:30:30.660Z,19.92
2023-05-23T20:32:58.375Z,16.30
2023-05-23T20:35:27.088Z,13.38
2023-05-23T20:37:55.028Z,17.40
2023-05-23T20:40:23.174Z,12.07
2023-05-23T20:42:51.740Z,17.60
2023-05-23T20:45:21.735Z,15.10
2023-05-23T20:47:49.469Z,18.48
2023-05-23T20:50:19.070Z,17.52
2023-05-23T20:52:47.126Z,20.98
2023-05-23T20:55:15.261Z,20.83
2023-05-23T20:57:43.219Z,19.67
2023-05-23T21:00:12.551Z,18.83
2023-05-23T21:02:42.407Z,16.50
2023-05-23T21:05:11.620Z,22.58
2023-05-23T21:07:39.567Z,23.55
2023-05-23T21:10:08.028Z,16.42
2023-05-23T21:12:35.744Z,27.70
2023-05-23T21:15:03.479Z,12.45
2023-05-23T21:17:31.199Z,20.70
2023-05-23T21:20:00.461Z,14.75
2023-05-23T21:22:28.106Z,19.55
2023-05-23T21:24:55.835Z,21.10
2023-05-23T21:27:23.490Z,18.65
2023-05-23T21:29:51.201Z,27.33
2023-05-23T21:32:19.273Z,17.52
2023-05-23T21:34:47.045Z,16.17
2023-05-23T21:37:16.231Z,25.48
2023-05-23T21:39:51.339Z,19.48
2023-05-23T21:42:21.252Z,17.45
2023-05-23T21:44:49.211Z,22.65
2023-05-23T21:47:16.968Z,16.40
2023-05-23T21:49:44.719Z,21.00
2023-05-23T21:52:12.432Z,17.70
2023-05-23T21:54:41.367Z,22.33
2023-05-23T21:57:09.147Z,19.92
2023-05-23T21:59:36.746Z,20.23
2023-05-23T22:02:04.714Z,18.77
2023-05-23T22:04:32.788Z,19.02
2023-05-23T22:07:00.544Z,17.30
2023-05-23T22:09:29.332Z,21.63
2023-05-23T22:11:58.742Z,22.33
2023-05-23T22:14:26.439Z,20.98
2023-05-23T22:16:54.380Z,23.90
2023-05-23T22:19:26.105Z,18.40
2023-05-23T22:21:53.899Z,16.40
2023-05-23T22:24:21.569Z,17.15
2023-05-23T22:26:49.230Z,20.55
2023-05-23T22:29:18.328Z,21.63
2023-05-23T22:31:46.826Z,24.10
2023-05-23T22:34:14.771Z,22.20
2023-05-23T22:36:42.477Z,18.23
2023-05-23T22:39:10.482Z,15.85
2023-05-23T22:41:38.168Z,26.27
2023-05-23T22:44:06.014Z,15.57
2023-05-23T22:46:35.138Z,19.42
2023-05-23T22:49:03.597Z,19.42
2023-05-23T22:51:33.961Z,19.85
2023-05-23T22:54:01.857Z,20.50
2023-05-23T22:56:29.673Z,21.50
2023-05-23T22:58:57.328Z,25.25
2023-05-23T23:01:25.047Z,19.35
2023-05-23T23:03:54.135Z,21.30
2023-05-23T23:06:21.994Z,22.48
2023-05-23T23:08:49.918Z,26.38
2023-05-23T23:11:17.677Z,16.70
2023-05-23T23:13:45.838Z,16.20
2023-05-23T23:16:13.613Z,23.48
2023-05-23T23:18:41.583Z,27.65
2023-05-23T23:21:10.702Z,21.55
2023-05-23T23:23:38.541Z,24.23
2023-05-23T23:26:06.269Z,21.80
2023-05-23T23:28:34.087Z,24.88
2023-05-23T23:31:02.027Z,21.25
2023-05-23T23:33:29.751Z,22.58
2023-05-23T23:35:58.226Z,20.33
2023-05-23T23:38:27.255Z,21.00
2023-05-23T23:40:54.939Z,19.40
2023-05-23T23:43:22.833Z,23.80
2023-05-23T23:45:50.498Z,24.20
2023-05-23T23:48:18.242Z,18.50
2023-05-23T23:50:46.242Z,21.98
2023-05-23T23:53:13.954Z,22.75
2023-05-23T23:55:43.035Z,20.48
2023-05-23T23:58:10.794Z,25.33
